Athens, Arkansas
Current Conditions -  °F | °C
As of 1:15 PM on Friday 28 Nov 2014 (Local Time) from KMEZ Reporting Station
Clear Clear  
Wind Chill: 61°   Ceiling: Unl
Heat Index: 61°   Visibility: 10mi
Dew Point: 37°   Wind: 6mph
Humidity: 42%   Direction: 210°SSW
Pressure: 30.13"   Gusts: NA
Location:  34.2871°N, 94.1174°W
Report Text: KMEZ 281915Z AUTO 21005KT 10SM CLR 16/03 A3013 RMK AO2
Loading
Personal Weather Stations






























Interactive Weather Map New forecast layout! Learn more

10-Day Weather Forecast

Advertisements
Track Severe Weather on mobile